Amber, OK

12:58 AM CST on February 13, 2016 (GMT -0600)
Oakmont | | Change Station
CLOSE
Current Station
Personal Weather Station
Location: Blanchard, OK
Elevation: 1355 ft
Nearby Weather Stations

Elev 1355 ft 35.13 °N, 97.69 °W | Updated 42 seconds ago

Clear
Clear
37.5 °F
Feels Like 38 °F
N
1.0
Wind Variable Wind from ENE
Gusts 5.0 mph

Today
High -- | Low -- °F
--% Chance of Precip.
Yesterday
High -- | Low -- °F
Precip. -- in
Pressure 30.43 in
Visibility 10.0 miles
Clouds Clear
Windchill 38 °F
Dew Point 26 °F
Humidity 63%
Rainfall Not available.
Snow Depth Not available.
7:19 AM 6:11 PM
Waxing Crescent, 28% visible
METAR KCHK 130635Z AUTO 05005KT 10SM CLR 01/M01 A3043 RMK AO2
Pressure 30.43 in
Visibility 10.0 miles
Clouds Clear
Windchill 38 °F
Dew Point 26 °F
Humidity 63%
Rainfall Not available.
Snow Depth Not available.
7:19 AM 6:11 PM
Waxing Crescent, 28% visible
METAR KCHK 130635Z AUTO 05005KT 10SM CLR 01/M01 A3043 RMK AO2

10-Day Weather Forecast

Almanac

Astronomy

Feb. 13, 2016 Rise Set
Actual Time
Civil Twilight
Nautical Twilight
Astronomical Twilight
Moon
Length of Visible Light
Length of Day
Tomorrow will be .
, % of the Moon is Illuminated

Today's Extremes

State Highs State Lows

Community

WunderPhotos

Upload Photos

1,892,519 photos uploaded!

WunderBlog® & News

Nearby

Air Quality

  Air Quality AQ Index Pollutant
Not available.

Snow Depth

Station Depth Elevation

Earthquake Activity

City Distance Mag. Time & Date
Minimum magnitude displayed is 2.5.

Coastal Water Temperatures

Place Temperature

Stations

Nearby Weather Stations

Station Location Temp. Windchill Dew Point Humidity Wind Precip. Elev Updated Type
                   

Watches & Warnings

There are currently no watches in effect.